createdAt,value
2019-05-20T00:00:11.549Z,11.45
2019-05-20T00:05:10.554Z,11.49
2019-05-20T00:10:10.583Z,11.36
2019-05-20T00:15:10.543Z,11.22
2019-05-20T00:20:09.962Z,11.14
2019-05-20T00:25:09.546Z,11.28
2019-05-20T00:30:09.730Z,11.20
2019-05-20T00:35:09.538Z,11.13
2019-05-20T00:40:09.525Z,11.01
2019-05-20T00:45:08.861Z,11.01
2019-05-20T00:50:08.570Z,10.86
2019-05-20T00:55:08.531Z,10.73
2019-05-20T01:00:08.657Z,10.62
2019-05-20T01:05:07.914Z,10.57
2019-05-20T01:10:07.633Z,10.64
2019-05-20T01:15:06.894Z,10.66
2019-05-20T01:20:07.642Z,10.69
2019-05-20T01:25:06.767Z,10.63
2019-05-20T01:30:05.542Z,10.75
2019-05-20T01:35:06.642Z,10.80
2019-05-20T01:40:06.722Z,10.91
2019-05-20T01:45:06.608Z,11.06
2019-05-20T01:50:06.714Z,11.17
2019-05-20T01:55:06.087Z,11.21
2019-05-20T02:00:06.590Z,11.21
2019-05-20T02:05:05.591Z,11.28
2019-05-20T02:10:04.552Z,11.24
2019-05-20T02:15:04.576Z,11.21
2019-05-20T02:20:03.784Z,11.16
2019-05-20T02:25:03.753Z,11.06
2019-05-20T02:30:03.634Z,11.02
2019-05-20T02:35:04.592Z,11.10
2019-05-20T02:40:03.636Z,11.14
2019-05-20T02:45:04.553Z,11.16
2019-05-20T02:50:05.566Z,11.24
2019-05-20T02:55:05.592Z,11.37
2019-05-20T03:00:04.629Z,11.51
2019-05-20T03:05:04.726Z,11.63
2019-05-20T03:10:03.929Z,11.75
2019-05-20T03:15:04.598Z,11.86
2019-05-20T03:20:03.571Z,11.91
2019-05-20T03:25:02.689Z,11.98
2019-05-20T03:30:02.010Z,12.06
2019-05-20T03:35:02.171Z,12.13
2019-05-20T03:40:02.655Z,12.19
2019-05-20T03:45:02.572Z,12.25
2019-05-20T03:50:02.678Z,12.29
2019-05-20T03:55:02.542Z,12.31
2019-05-20T04:00:02.562Z,12.35
2019-05-20T04:05:03.314Z,12.36
2019-05-20T04:10:03.611Z,12.36
2019-05-20T04:15:03.601Z,12.35
2019-05-20T04:20:02.647Z,12.39
2019-05-20T04:25:02.544Z,12.40
2019-05-20T04:30:01.669Z,12.43
2019-05-20T04:35:19.765Z,12.44
2019-05-20T04:39:59.694Z,12.46
2019-05-20T04:45:00.547Z,12.52
2019-05-20T04:50:00.544Z,12.61
2019-05-20T04:59:59.665Z,12.70
2019-05-20T05:04:59.613Z,12.71
2019-05-20T05:09:59.563Z,12.76
2019-05-20T05:14:58.563Z,12.83
2019-05-20T05:19:58.560Z,12.88
2019-05-20T05:24:59.559Z,12.91
2019-05-20T05:29:59.581Z,12.94
2019-05-20T05:34:59.570Z,12.99
2019-05-20T05:39:58.529Z,13.02
2019-05-20T05:44:58.572Z,13.06
2019-05-20T05:49:58.572Z,13.13
2019-05-20T05:54:58.534Z,13.17
2019-05-20T05:59:59.538Z,13.22
2019-05-20T06:04:59.536Z,13.25
2019-05-20T06:09:59.546Z,13.32
2019-05-20T06:14:59.584Z,13.40
2019-05-20T06:19:59.565Z,13.50
2019-05-20T06:24:58.926Z,13.55
2019-05-20T06:29:58.523Z,13.58
2019-05-20T06:34:58.539Z,13.60
2019-05-20T06:39:58.675Z,13.65
2019-05-20T06:44:58.877Z,13.70
2019-05-20T06:49:58.529Z,13.74
2019-05-20T06:54:57.562Z,13.78
2019-05-20T06:59:56.689Z,13.86
2019-05-20T07:04:56.556Z,13.93
2019-05-20T07:09:56.686Z,14.02
2019-05-20T07:14:56.555Z,14.09
2019-05-20T07:19:56.521Z,14.23
2019-05-20T07:24:56.538Z,14.34
2019-05-20T07:29:56.559Z,14.40
2019-05-20T07:34:56.530Z,14.47
2019-05-20T07:39:56.672Z,14.53
2019-05-20T07:44:57.578Z,14.56
2019-05-20T07:49:57.527Z,14.63
2019-05-20T07:54:56.604Z,14.66
2019-05-20T07:59:55.891Z,14.68
2019-05-20T08:04:56.558Z,14.66
2019-05-20T08:09:56.198Z,14.68
2019-05-20T08:14:56.042Z,14.69
2019-05-20T08:19:55.415Z,14.79
2019-05-20T08:24:56.108Z,14.93
2019-05-20T08:29:55.034Z,14.99
2019-05-20T08:34:55.051Z,14.97
2019-05-20T08:39:54.989Z,14.93
2019-05-20T08:44:55.060Z,15.05
2019-05-20T08:49:55.080Z,15.20
2019-05-20T08:54:54.297Z,15.45
2019-05-20T08:59:54.034Z,15.62
2019-05-20T09:04:54.024Z,15.63
2019-05-20T09:09:55.165Z,15.63
2019-05-20T09:14:55.064Z,15.51
2019-05-20T09:19:55.015Z,15.48
2019-05-20T09:24:55.053Z,15.43
2019-05-20T09:29:54.217Z,15.43
2019-05-20T09:34:53.269Z,15.49
2019-05-20T09:39:53.306Z,15.47
2019-05-20T09:44:53.046Z,15.42
2019-05-20T09:49:53.052Z,15.40
2019-05-20T09:54:54.071Z,15.44
2019-05-20T09:59:53.015Z,15.40
2019-05-20T10:04:52.084Z,15.27
2019-05-20T10:09:52.073Z,15.35
2019-05-20T10:14:52.881Z,15.35
2019-05-20T10:19:51.232Z,15.33
2019-05-20T10:24:51.213Z,15.42
2019-05-20T10:29:50.304Z,15.48
2019-05-20T10:34:50.993Z,15.49
2019-05-20T10:39:50.347Z,15.60
2019-05-20T10:44:49.993Z,15.73
2019-05-20T10:49:49.054Z,15.85
2019-05-20T10:54:49.352Z,16.04
2019-05-20T10:59:48.981Z,16.13
2019-05-20T11:04:49.011Z,16.21
2019-05-20T11:09:47.985Z,16.27
2019-05-20T11:14:47.030Z,16.31
2019-05-20T11:19:48.001Z,16.38
2019-05-20T11:24:47.991Z,16.42
2019-05-20T11:29:48.984Z,16.40
2019-05-20T11:34:48.969Z,16.46
2019-05-20T11:39:48.020Z,16.47
2019-05-20T11:44:47.036Z,16.50
2019-05-20T11:49:46.974Z,16.58
2019-05-20T11:54:46.066Z,16.60
2019-05-20T11:59:45.968Z,16.57
2019-05-20T12:04:44.963Z,16.56
2019-05-20T12:09:49.449Z,16.51
2019-05-20T12:14:44.017Z,16.50
2019-05-20T12:19:43.061Z,16.50
2019-05-20T12:24:42.993Z,16.47
2019-05-20T12:29:44.037Z,16.42
2019-05-20T12:34:43.972Z,16.47
2019-05-20T12:39:43.992Z,16.52
2019-05-20T12:44:45.205Z,16.61
2019-05-20T12:49:45.095Z,16.65
2019-05-20T12:54:44.160Z,16.63
2019-05-20T12:59:44.142Z,16.58
2019-05-20T13:04:43.070Z,16.58
2019-05-20T13:09:41.992Z,16.51
2019-05-20T13:14:40.992Z,16.50
2019-05-20T13:19:41.029Z,16.49
2019-05-20T13:24:40.074Z,16.42
2019-05-20T13:29:40.064Z,16.42
2019-05-20T13:34:40.257Z,16.42
2019-05-20T13:39:39.960Z,16.37
2019-05-20T13:44:39.980Z,16.37
2019-05-20T13:49:40.007Z,16.43
2019-05-20T13:54:41.008Z,16.52
2019-05-20T13:59:39.941Z,16.60
2019-05-20T14:04:38.942Z,16.65
2019-05-20T14:09:38.069Z,16.63
2019-05-20T14:14:38.004Z,16.67
2019-05-20T14:19:38.027Z,16.69
2019-05-20T14:24:37.163Z,16.83
2019-05-20T14:29:36.938Z,17.00
2019-05-20T14:34:36.948Z,17.12
2019-05-20T14:39:35.952Z,17.22
2019-05-20T14:44:34.888Z,17.16
2019-05-20T14:49:34.932Z,17.02
2019-05-20T14:54:36.383Z,16.92
2019-05-20T14:59:34.963Z,16.87
2019-05-20T15:04:36.034Z,16.82
2019-05-20T15:09:36.963Z,16.78
2019-05-20T15:14:36.935Z,16.73
2019-05-20T15:19:36.944Z,16.77
2019-05-20T15:24:36.028Z,16.79
2019-05-20T15:29:35.918Z,16.76
2019-05-20T15:34:35.977Z,16.79
2019-05-20T15:39:35.907Z,16.78
2019-05-20T15:44:35.941Z,16.75
2019-05-20T15:49:34.938Z,16.71
2019-05-20T15:54:33.992Z,16.74
2019-05-20T15:59:45.412Z,16.79
2019-05-20T16:04:34.893Z,16.79
2019-05-20T16:09:34.943Z,16.74
2019-05-20T16:14:34.920Z,16.60
2019-05-20T16:19:33.944Z,16.56
2019-05-20T16:24:33.957Z,16.50
2019-05-20T16:29:33.164Z,16.47
2019-05-20T16:34:32.906Z,16.47
2019-05-20T16:39:32.946Z,16.41
2019-05-20T16:44:31.936Z,16.36
2019-05-20T16:49:31.315Z,16.32
2019-05-20T16:54:31.959Z,16.25
2019-05-20T16:59:31.255Z,16.20
2019-05-20T17:04:30.892Z,16.17
2019-05-20T17:09:30.040Z,16.13
2019-05-20T17:14:30.884Z,16.15
2019-05-20T17:19:31.902Z,16.15
2019-05-20T17:24:30.898Z,16.18
2019-05-20T17:29:30.899Z,16.18
2019-05-20T17:34:29.890Z,16.18
2019-05-20T17:39:29.862Z,16.16
2019-05-20T17:44:30.903Z,16.13
2019-05-20T17:49:30.883Z,16.10
2019-05-20T17:54:31.886Z,16.09
2019-05-20T17:59:32.874Z,16.07
2019-05-20T18:04:32.902Z,16.07
2019-05-20T18:09:32.935Z,16.05
2019-05-20T18:14:32.873Z,16.06
2019-05-20T18:19:31.907Z,16.05
2019-05-20T18:24:31.343Z,16.02
2019-05-20T18:29:31.971Z,16.01
2019-05-20T18:34:31.073Z,15.99
2019-05-20T18:39:29.965Z,15.96
2019-05-20T18:44:29.943Z,15.92
2019-05-20T18:49:29.945Z,15.88
2019-05-20T18:54:28.912Z,15.82
2019-05-20T18:59:29.912Z,15.80
2019-05-20T19:04:28.908Z,15.76
2019-05-20T19:09:28.862Z,15.73
2019-05-20T19:14:28.025Z,15.70
2019-05-20T19:19:27.957Z,15.68
2019-05-20T19:24:29.584Z,15.65
2019-05-20T19:29:27.890Z,15.61
2019-05-20T19:34:28.008Z,15.58
2019-05-20T19:39:27.882Z,15.58
2019-05-20T19:44:26.902Z,15.58
2019-05-20T19:49:26.989Z,15.54
2019-05-20T19:54:26.924Z,15.52
2019-05-20T19:59:26.911Z,15.50
2019-05-20T20:04:27.948Z,15.48
2019-05-20T20:09:27.862Z,15.47
2019-05-20T20:14:27.852Z,15.46
2019-05-20T20:19:27.868Z,15.45
2019-05-20T20:24:27.864Z,15.41
2019-05-20T20:29:28.852Z,15.41
2019-05-20T20:34:30.685Z,15.38
2019-05-20T20:39:27.871Z,15.37
2019-05-20T20:44:27.890Z,15.38
2019-05-20T20:49:26.886Z,15.37
2019-05-20T20:54:26.850Z,15.35
2019-05-20T20:59:26.909Z,15.35
2019-05-20T21:04:26.183Z,15.32
2019-05-20T21:09:25.932Z,15.30
2019-05-20T21:14:24.876Z,15.27
2019-05-20T21:19:24.823Z,15.23
2019-05-20T21:24:23.908Z,15.21
2019-05-20T21:29:22.839Z,15.19
2019-05-20T21:34:23.868Z,15.18
2019-05-20T21:39:23.858Z,15.13
2019-05-20T21:44:23.865Z,15.10
2019-05-20T21:49:23.883Z,15.02
2019-05-20T21:54:22.860Z,14.98
2019-05-20T21:59:21.894Z,14.92
2019-05-20T22:04:21.992Z,14.86
2019-05-20T22:09:20.850Z,14.84
2019-05-20T22:14:20.934Z,14.78
2019-05-20T22:19:20.818Z,14.74
2019-05-20T22:24:20.903Z,14.71
2019-05-20T22:29:20.843Z,14.68
2019-05-20T22:34:19.821Z,14.66
2019-05-20T22:39:19.816Z,14.62
2019-05-20T22:49:19.808Z,14.57
2019-05-20T22:54:20.925Z,14.55
2019-05-20T22:59:19.835Z,14.55
2019-05-20T23:04:18.831Z,14.53
2019-05-20T23:09:17.983Z,14.53
2019-05-20T23:14:17.856Z,14.49
2019-05-20T23:19:17.840Z,14.50
2019-05-20T23:24:18.941Z,14.50
2019-05-20T23:29:18.869Z,14.45
2019-05-20T23:34:18.830Z,14.32
2019-05-20T23:39:18.009Z,14.23
2019-05-20T23:44:16.800Z,14.08
2019-05-20T23:49:15.845Z,14.01
2019-05-20T23:54:14.782Z,13.90
2019-05-20T23:59:13.814Z,13.89
